sensor_id;sensor_type;location;lat;lon;timestamp;noise_LAeq;noise_LA_min;noise_LA_max;noise_LA01;noise_LA95
76339;Laerm;26644;50.248;19.032;2023-07-13T00:02:00;52.60;42.06;67.57;;
76339;Laerm;26644;50.248;19.032;2023-07-13T00:05:05;48.22;43.96;61.28;;
76339;Laerm;26644;50.248;19.032;2023-07-13T00:08:11;48.89;45.73;60.65;;
76339;Laerm;26644;50.248;19.032;2023-07-13T00:11:16;50.46;47.64;60.52;;
76339;Laerm;26644;50.248;19.032;2023-07-13T00:14:25;50.47;46.85;58.25;;
76339;Laerm;26644;50.248;19.032;2023-07-13T00:17:30;48.92;44.01;53.11;;
76339;Laerm;26644;50.248;19.032;2023-07-13T00:20:35;46.69;42.25;52.46;;
76339;Laerm;26644;50.248;19.032;2023-07-13T00:23:41;46.68;42.53;51.78;;
76339;Laerm;26644;50.248;19.032;2023-07-13T00:26:46;47.63;43.29;51.56;;
76339;Laerm;26644;50.248;19.032;2023-07-13T00:29:53;46.98;42.82;55.88;;
76339;Laerm;26644;50.248;19.032;2023-07-13T00:32:58;47.72;43.11;52.43;;
76339;Laerm;26644;50.248;19.032;2023-07-13T00:36:04;45.59;42.12;50.52;;
76339;Laerm;26644;50.248;19.032;2023-07-13T00:39:09;45.54;41.09;50.31;;
76339;Laerm;26644;50.248;19.032;2023-07-13T00:42:13;46.64;43.02;51.38;;
76339;Laerm;26644;50.248;19.032;2023-07-13T00:49:29;45.42;41.41;49.47;;
76339;Laerm;26644;50.248;19.032;2023-07-13T00:52:40;46.51;42.65;51.84;;
76339;Laerm;26644;50.248;19.032;2023-07-13T00:55:48;46.33;42.88;52.45;;
76339;Laerm;26644;50.248;19.032;2023-07-13T00:58:56;46.72;42.10;51.80;;
76339;Laerm;26644;50.248;19.032;2023-07-13T01:02:02;44.82;41.93;51.97;;
76339;Laerm;26644;50.248;19.032;2023-07-13T01:05:14;46.00;41.68;51.43;;
76339;Laerm;26644;50.248;19.032;2023-07-13T01:08:20;45.42;42.21;51.15;;
76339;Laerm;26644;50.248;19.032;2023-07-13T01:11:27;45.08;41.50;49.30;;
76339;Laerm;26644;50.248;19.032;2023-07-13T01:14:31;44.68;40.78;50.39;;
76339;Laerm;26644;50.248;19.032;2023-07-13T01:17:36;47.49;43.02;54.24;;
76339;Laerm;26644;50.248;19.032;2023-07-13T01:20:53;46.45;41.98;55.88;;
76339;Laerm;26644;50.248;19.032;2023-07-13T01:23:58;47.66;43.97;52.03;;
76339;Laerm;26644;50.248;19.032;2023-07-13T01:27:06;46.39;42.28;54.17;;
76339;Laerm;26644;50.248;19.032;2023-07-13T01:30:12;46.79;42.71;52.40;;
76339;Laerm;26644;50.248;19.032;2023-07-13T01:33:17;45.76;41.48;53.22;;
76339;Laerm;26644;50.248;19.032;2023-07-13T01:36:25;50.07;42.38;64.86;;
76339;Laerm;26644;50.248;19.032;2023-07-13T01:39:29;48.77;43.39;57.37;;
76339;Laerm;26644;50.248;19.032;2023-07-13T01:42:35;51.62;48.65;59.17;;
76339;Laerm;26644;50.248;19.032;2023-07-13T01:45:39;50.09;46.00;56.28;;
76339;Laerm;26644;50.248;19.032;2023-07-13T01:48:45;46.69;42.64;51.31;;
76339;Laerm;26644;50.248;19.032;2023-07-13T01:51:52;47.45;42.42;52.97;;
76339;Laerm;26644;50.248;19.032;2023-07-13T01:54:57;45.93;41.45;50.85;;
76339;Laerm;26644;50.248;19.032;2023-07-13T01:58:02;46.91;40.46;53.46;;
76339;Laerm;26644;50.248;19.032;2023-07-13T02:01:07;47.43;42.48;55.37;;
76339;Laerm;26644;50.248;19.032;2023-07-13T02:04:11;47.24;43.14;52.51;;
76339;Laerm;26644;50.248;19.032;2023-07-13T02:07:19;47.87;44.29;51.86;;
76339;Laerm;26644;50.248;19.032;2023-07-13T02:10:23;48.78;43.75;55.74;;
76339;Laerm;26644;50.248;19.032;2023-07-13T02:13:28;47.46;42.33;53.04;;
76339;Laerm;26644;50.248;19.032;2023-07-13T02:16:32;47.10;41.84;52.51;;
76339;Laerm;26644;50.248;19.032;2023-07-13T02:19:37;46.71;40.68;53.43;;
76339;Laerm;26644;50.248;19.032;2023-07-13T02:22:44;47.86;43.48;54.33;;
76339;Laerm;26644;50.248;19.032;2023-07-13T02:25:52;48.68;43.62;55.70;;
76339;Laerm;26644;50.248;19.032;2023-07-13T02:28:57;48.20;44.16;53.29;;
76339;Laerm;26644;50.248;19.032;2023-07-13T02:32:03;48.59;44.66;56.09;;
76339;Laerm;26644;50.248;19.032;2023-07-13T02:35:08;48.39;44.13;55.53;;
76339;Laerm;26644;50.248;19.032;2023-07-13T02:38:16;48.42;42.41;66.03;;
76339;Laerm;26644;50.248;19.032;2023-07-13T02:41:20;48.59;42.74;56.46;;
76339;Laerm;26644;50.248;19.032;2023-07-13T02:44:25;48.06;43.41;53.31;;
76339;Laerm;26644;50.248;19.032;2023-07-13T02:47:32;49.12;43.62;61.74;;
76339;Laerm;26644;50.248;19.032;2023-07-13T02:50:37;49.60;44.37;57.12;;
76339;Laerm;26644;50.248;19.032;2023-07-13T02:53:44;47.85;44.71;55.76;;
76339;Laerm;26644;50.248;19.032;2023-07-13T02:56:49;48.02;44.33;52.03;;
76339;Laerm;26644;50.248;19.032;2023-07-13T02:59:53;48.66;45.02;52.87;;
76339;Laerm;26644;50.248;19.032;2023-07-13T03:02:59;49.55;44.41;58.39;;
76339;Laerm;26644;50.248;19.032;2023-07-13T03:06:05;49.08;44.93;60.55;;
76339;Laerm;26644;50.248;19.032;2023-07-13T03:09:20;48.95;45.20;59.80;;
76339;Laerm;26644;50.248;19.032;2023-07-13T03:12:27;48.61;44.12;53.86;;
76339;Laerm;26644;50.248;19.032;2023-07-13T03:15:32;49.64;44.36;54.26;;
76339;Laerm;26644;50.248;19.032;2023-07-13T03:18:38;49.74;45.82;56.87;;
76339;Laerm;26644;50.248;19.032;2023-07-13T03:21:45;50.96;45.19;59.10;;
76339;Laerm;26644;50.248;19.032;2023-07-13T03:24:52;49.41;45.69;58.58;;
76339;Laerm;26644;50.248;19.032;2023-07-13T03:27:58;50.83;45.83;61.24;;
76339;Laerm;26644;50.248;19.032;2023-07-13T03:31:06;48.95;45.38;61.15;;
76339;Laerm;26644;50.248;19.032;2023-07-13T03:34:12;51.27;45.38;62.36;;
76339;Laerm;26644;50.248;19.032;2023-07-13T03:37:17;49.90;46.15;61.51;;
76339;Laerm;26644;50.248;19.032;2023-07-13T03:40:24;49.37;46.09;61.65;;
76339;Laerm;26644;50.248;19.032;2023-07-13T03:43:29;51.04;46.95;70.39;;
76339;Laerm;26644;50.248;19.032;2023-07-13T03:46:34;50.18;45.93;62.41;;
76339;Laerm;26644;50.248;19.032;2023-07-13T03:49:38;50.41;46.45;60.49;;
76339;Laerm;26644;50.248;19.032;2023-07-13T03:52:44;49.96;46.17;54.83;;
76339;Laerm;26644;50.248;19.032;2023-07-13T03:55:53;50.70;47.30;55.22;;
76339;Laerm;26644;50.248;19.032;2023-07-13T03:58:58;50.71;45.34;60.32;;
76339;Laerm;26644;50.248;19.032;2023-07-13T04:02:05;51.11;46.30;67.42;;
76339;Laerm;26644;50.248;19.032;2023-07-13T04:05:10;50.27;46.53;62.14;;
76339;Laerm;26644;50.248;19.032;2023-07-13T04:08:15;50.45;46.63;60.10;;
76339;Laerm;26644;50.248;19.032;2023-07-13T04:11:25;50.71;46.10;65.77;;
76339;Laerm;26644;50.248;19.032;2023-07-13T04:14:30;50.28;46.65;59.77;;
76339;Laerm;26644;50.248;19.032;2023-07-13T04:17:35;50.73;46.94;59.26;;
76339;Laerm;26644;50.248;19.032;2023-07-13T04:20:39;50.72;46.56;58.38;;
76339;Laerm;26644;50.248;19.032;2023-07-13T04:23:44;50.87;47.32;67.11;;
76339;Laerm;26644;50.248;19.032;2023-07-13T04:26:51;50.88;47.56;62.28;;
76339;Laerm;26644;50.248;19.032;2023-07-13T04:29:56;60.39;47.28;97.04;;
76339;Laerm;26644;50.248;19.032;2023-07-13T04:33:00;52.06;48.35;70.05;;
76339;Laerm;26644;50.248;19.032;2023-07-13T04:36:06;50.76;47.61;59.51;;
76339;Laerm;26644;50.248;19.032;2023-07-13T04:39:10;52.24;47.99;67.88;;
76339;Laerm;26644;50.248;19.032;2023-07-13T04:42:18;51.25;47.48;62.53;;
76339;Laerm;26644;50.248;19.032;2023-07-13T04:45:23;52.60;48.27;68.48;;
76339;Laerm;26644;50.248;19.032;2023-07-13T04:48:29;55.98;48.60;70.19;;
76339;Laerm;26644;50.248;19.032;2023-07-13T04:51:33;53.97;49.64;69.35;;
76339;Laerm;26644;50.248;19.032;2023-07-13T04:54:38;52.40;48.27;62.35;;
76339;Laerm;26644;50.248;19.032;2023-07-13T04:57:47;51.31;47.55;68.17;;
76339;Laerm;26644;50.248;19.032;2023-07-13T05:00:52;52.46;47.49;67.09;;
76339;Laerm;26644;50.248;19.032;2023-07-13T05:03:56;54.60;50.79;67.06;;
76339;Laerm;26644;50.248;19.032;2023-07-13T05:07:02;55.69;47.96;69.47;;
76339;Laerm;26644;50.248;19.032;2023-07-13T05:10:09;52.67;47.97;68.17;;
76339;Laerm;26644;50.248;19.032;2023-07-13T05:13:16;54.99;48.22;63.97;;
76339;Laerm;26644;50.248;19.032;2023-07-13T05:16:21;55.55;47.89;66.58;;
76339;Laerm;26644;50.248;19.032;2023-07-13T05:19:26;56.59;47.30;62.72;;
76339;Laerm;26644;50.248;19.032;2023-07-13T05:22:30;56.69;48.54;65.29;;
76339;Laerm;26644;50.248;19.032;2023-07-13T05:25:37;55.97;47.53;74.47;;
76339;Laerm;26644;50.248;19.032;2023-07-13T05:28:44;64.31;48.69;93.42;;
76339;Laerm;26644;50.248;19.032;2023-07-13T05:31:49;51.85;48.04;66.18;;
76339;Laerm;26644;50.248;19.032;2023-07-13T05:34:54;52.17;47.79;78.94;;
76339;Laerm;26644;50.248;19.032;2023-07-13T05:37:59;52.58;48.80;62.66;;
76339;Laerm;26644;50.248;19.032;2023-07-13T05:41:03;54.94;48.12;66.91;;
76339;Laerm;26644;50.248;19.032;2023-07-13T05:44:11;58.47;48.73;74.32;;
76339;Laerm;26644;50.248;19.032;2023-07-13T05:47:15;57.57;48.85;77.39;;
76339;Laerm;26644;50.248;19.032;2023-07-13T05:50:20;54.56;48.91;65.87;;
76339;Laerm;26644;50.248;19.032;2023-07-13T05:53:24;53.71;48.12;68.84;;
76339;Laerm;26644;50.248;19.032;2023-07-13T05:56:29;51.08;47.53;64.20;;
76339;Laerm;26644;50.248;19.032;2023-07-13T05:59:36;50.96;46.91;59.53;;
76339;Laerm;26644;50.248;19.032;2023-07-13T06:02:42;52.69;47.84;67.20;;
76339;Laerm;26644;50.248;19.032;2023-07-13T06:05:46;50.97;47.31;60.83;;
76339;Laerm;26644;50.248;19.032;2023-07-13T06:08:51;53.91;48.03;66.83;;
76339;Laerm;26644;50.248;19.032;2023-07-13T06:11:55;53.46;47.49;67.12;;
76339;Laerm;26644;50.248;19.032;2023-07-13T06:15:05;53.43;46.94;63.41;;
76339;Laerm;26644;50.248;19.032;2023-07-13T06:18:09;54.36;48.18;62.43;;
76339;Laerm;26644;50.248;19.032;2023-07-13T06:21:17;53.45;48.15;60.96;;
76339;Laerm;26644;50.248;19.032;2023-07-13T06:24:22;52.23;47.56;62.43;;
76339;Laerm;26644;50.248;19.032;2023-07-13T06:27:27;51.80;47.76;66.45;;
76339;Laerm;26644;50.248;19.032;2023-07-13T06:30:34;51.16;46.72;61.73;;
76339;Laerm;26644;50.248;19.032;2023-07-13T06:33:39;53.24;48.12;71.77;;
76339;Laerm;26644;50.248;19.032;2023-07-13T06:36:44;51.67;47.89;70.41;;
76339;Laerm;26644;50.248;19.032;2023-07-13T06:39:49;55.64;47.83;64.75;;
76339;Laerm;26644;50.248;19.032;2023-07-13T06:42:53;55.27;48.47;68.77;;
76339;Laerm;26644;50.248;19.032;2023-07-13T06:46:01;53.93;48.76;70.50;;
76339;Laerm;26644;50.248;19.032;2023-07-13T06:49:05;52.74;47.25;65.06;;
76339;Laerm;26644;50.248;19.032;2023-07-13T06:52:10;55.00;48.71;68.94;;
76339;Laerm;26644;50.248;19.032;2023-07-13T06:55:15;54.05;48.44;66.65;;
76339;Laerm;26644;50.248;19.032;2023-07-13T06:58:21;56.15;48.49;75.39;;
76339;Laerm;26644;50.248;19.032;2023-07-13T07:01:28;54.03;47.98;75.76;;
76339;Laerm;26644;50.248;19.032;2023-07-13T07:04:32;53.02;48.23;68.42;;
76339;Laerm;26644;50.248;19.032;2023-07-13T07:07:37;52.43;47.89;65.16;;
76339;Laerm;26644;50.248;19.032;2023-07-13T07:10:42;55.71;48.79;69.08;;
76339;Laerm;26644;50.248;19.032;2023-07-13T07:13:46;56.94;47.78;72.40;;
76339;Laerm;26644;50.248;19.032;2023-07-13T07:16:54;56.46;48.92;75.55;;
76339;Laerm;26644;50.248;19.032;2023-07-13T07:19:59;53.49;48.68;67.72;;
76339;Laerm;26644;50.248;19.032;2023-07-13T07:23:05;52.10;47.50;65.75;;
76339;Laerm;26644;50.248;19.032;2023-07-13T07:26:09;52.91;47.48;68.68;;
76339;Laerm;26644;50.248;19.032;2023-07-13T07:29:14;52.71;49.20;65.86;;
76339;Laerm;26644;50.248;19.032;2023-07-13T07:32:21;53.20;48.87;68.45;;
76339;Laerm;26644;50.248;19.032;2023-07-13T07:35:26;54.43;48.04;69.04;;
76339;Laerm;26644;50.248;19.032;2023-07-13T07:38:31;55.89;48.98;74.54;;
76339;Laerm;26644;50.248;19.032;2023-07-13T07:41:36;54.95;49.03;65.62;;
76339;Laerm;26644;50.248;19.032;2023-07-13T07:44:40;55.51;49.39;63.25;;
76339;Laerm;26644;50.248;19.032;2023-07-13T07:47:48;55.05;48.62;68.75;;
76339;Laerm;26644;50.248;19.032;2023-07-13T07:50:52;55.62;49.98;63.70;;
76339;Laerm;26644;50.248;19.032;2023-07-13T07:53:57;54.16;48.66;61.69;;
76339;Laerm;26644;50.248;19.032;2023-07-13T07:57:01;52.49;48.40;59.75;;
76339;Laerm;26644;50.248;19.032;2023-07-13T08:00:08;53.35;48.93;60.89;;
76339;Laerm;26644;50.248;19.032;2023-07-13T08:03:24;51.80;47.98;59.77;;
76339;Laerm;26644;50.248;19.032;2023-07-13T08:06:29;54.04;48.21;68.37;;
76339;Laerm;26644;50.248;19.032;2023-07-13T08:09:34;52.13;47.76;62.20;;
76339;Laerm;26644;50.248;19.032;2023-07-13T08:12:40;53.41;48.45;66.57;;
76339;Laerm;26644;50.248;19.032;2023-07-13T08:15:44;53.49;49.06;69.90;;
76339;Laerm;26644;50.248;19.032;2023-07-13T08:18:54;53.90;49.17;66.91;;
76339;Laerm;26644;50.248;19.032;2023-07-13T08:21:58;53.47;48.60;64.92;;
76339;Laerm;26644;50.248;19.032;2023-07-13T08:25:04;53.09;48.95;64.61;;
76339;Laerm;26644;50.248;19.032;2023-07-13T08:28:08;53.33;48.79;65.35;;
76339;Laerm;26644;50.248;19.032;2023-07-13T08:31:14;52.97;48.31;64.56;;
76339;Laerm;26644;50.248;19.032;2023-07-13T08:34:21;53.07;48.73;67.50;;
76339;Laerm;26644;50.248;19.032;2023-07-13T08:37:26;53.02;49.51;65.92;;
76339;Laerm;26644;50.248;19.032;2023-07-13T08:40:30;52.76;48.81;66.00;;
76339;Laerm;26644;50.248;19.032;2023-07-13T08:43:36;52.81;48.28;68.13;;
76339;Laerm;26644;50.248;19.032;2023-07-13T08:46:45;53.15;48.30;68.78;;
76339;Laerm;26644;50.248;19.032;2023-07-13T08:49:55;52.54;48.24;66.86;;
76339;Laerm;26644;50.248;19.032;2023-07-13T08:53:04;53.20;49.38;63.03;;
76339;Laerm;26644;50.248;19.032;2023-07-13T08:56:19;52.15;48.24;62.89;;
76339;Laerm;26644;50.248;19.032;2023-07-13T08:59:31;52.17;49.37;58.79;;
76339;Laerm;26644;50.248;19.032;2023-07-13T09:02:48;51.85;47.74;63.01;;
76339;Laerm;26644;50.248;19.032;2023-07-13T09:06:02;52.51;48.66;65.28;;
76339;Laerm;26644;50.248;19.032;2023-07-13T09:09:24;53.84;48.69;71.10;;
76339;Laerm;26644;50.248;19.032;2023-07-13T09:12:49;53.28;49.64;64.64;;
76339;Laerm;26644;50.248;19.032;2023-07-13T09:15:56;55.78;49.68;71.57;;
76339;Laerm;26644;50.248;19.032;2023-07-13T09:19:20;53.60;49.02;64.35;;
76339;Laerm;26644;50.248;19.032;2023-07-13T09:22:34;52.88;48.82;64.89;;
76339;Laerm;26644;50.248;19.032;2023-07-13T09:25:43;53.15;48.30;70.82;;
76339;Laerm;26644;50.248;19.032;2023-07-13T09:28:57;52.53;48.68;63.63;;
76339;Laerm;26644;50.248;19.032;2023-07-13T09:32:13;53.11;48.26;64.83;;
76339;Laerm;26644;50.248;19.032;2023-07-13T09:35:26;52.41;48.61;65.41;;
76339;Laerm;26644;50.248;19.032;2023-07-13T09:38:35;53.23;49.88;63.65;;
76339;Laerm;26644;50.248;19.032;2023-07-13T09:41:53;54.12;49.67;62.42;;
76339;Laerm;26644;50.248;19.032;2023-07-13T09:45:02;53.20;49.28;61.51;;
76339;Laerm;26644;50.248;19.032;2023-07-13T09:48:13;54.79;51.35;64.83;;
76339;Laerm;26644;50.248;19.032;2023-07-13T09:51:18;53.76;49.75;68.12;;
76339;Laerm;26644;50.248;19.032;2023-07-13T09:54:26;54.92;51.74;64.57;;
76339;Laerm;26644;50.248;19.032;2023-07-13T09:57:31;55.87;51.51;67.05;;
76339;Laerm;26644;50.248;19.032;2023-07-13T10:00:36;55.34;51.33;65.03;;
76339;Laerm;26644;50.248;19.032;2023-07-13T10:03:53;56.26;52.16;62.27;;
76339;Laerm;26644;50.248;19.032;2023-07-13T10:07:08;56.28;52.19;69.67;;
76339;Laerm;26644;50.248;19.032;2023-07-13T10:10:20;55.99;51.95;63.16;;
76339;Laerm;26644;50.248;19.032;2023-07-13T10:13:35;58.01;53.55;72.54;;
76339;Laerm;26644;50.248;19.032;2023-07-13T10:16:44;56.33;52.80;67.80;;
76339;Laerm;26644;50.248;19.032;2023-07-13T10:19:51;55.97;53.30;63.22;;
76339;Laerm;26644;50.248;19.032;2023-07-13T10:23:02;55.18;51.71;65.55;;
76339;Laerm;26644;50.248;19.032;2023-07-13T10:26:23;55.23;52.44;65.91;;
76339;Laerm;26644;50.248;19.032;2023-07-13T10:29:36;57.08;53.31;71.18;;
76339;Laerm;26644;50.248;19.032;2023-07-13T10:32:43;58.12;55.11;65.97;;
76339;Laerm;26644;50.248;19.032;2023-07-13T10:35:56;62.10;57.76;75.27;;
76339;Laerm;26644;50.248;19.032;2023-07-13T10:39:05;58.20;55.65;69.12;;
76339;Laerm;26644;50.248;19.032;2023-07-13T10:42:26;57.47;54.91;65.54;;
76339;Laerm;26644;50.248;19.032;2023-07-13T10:45:36;57.68;54.53;66.91;;
76339;Laerm;26644;50.248;19.032;2023-07-13T10:48:46;57.75;55.25;75.38;;
76339;Laerm;26644;50.248;19.032;2023-07-13T10:51:53;57.08;54.65;64.46;;
76339;Laerm;26644;50.248;19.032;2023-07-13T10:54:57;55.78;53.24;65.16;;
76339;Laerm;26644;50.248;19.032;2023-07-13T10:58:19;55.35;52.69;66.57;;
76339;Laerm;26644;50.248;19.032;2023-07-13T11:01:24;56.53;53.63;74.08;;
76339;Laerm;26644;50.248;19.032;2023-07-13T11:04:41;54.51;51.86;76.22;;
76339;Laerm;26644;50.248;19.032;2023-07-13T11:07:56;54.44;51.99;63.86;;
76339;Laerm;26644;50.248;19.032;2023-07-13T11:11:36;54.53;51.61;64.25;;
76339;Laerm;26644;50.248;19.032;2023-07-13T11:15:06;53.65;50.17;63.75;;
76339;Laerm;26644;50.248;19.032;2023-07-13T11:18:24;53.44;49.67;69.91;;
76339;Laerm;26644;50.248;19.032;2023-07-13T11:21:29;53.87;50.46;73.12;;
76339;Laerm;26644;50.248;19.032;2023-07-13T11:24:51;54.04;51.36;62.48;;
76339;Laerm;26644;50.248;19.032;2023-07-13T11:28:17;55.35;51.48;74.12;;
76339;Laerm;26644;50.248;19.032;2023-07-13T11:31:34;53.64;51.42;60.34;;
76339;Laerm;26644;50.248;19.032;2023-07-13T11:34:39;53.83;49.94;69.08;;
76339;Laerm;26644;50.248;19.032;2023-07-13T11:37:46;53.50;50.19;71.46;;
76339;Laerm;26644;50.248;19.032;2023-07-13T11:40:55;53.55;50.47;60.11;;
76339;Laerm;26644;50.248;19.032;2023-07-13T11:44:13;54.01;50.33;60.73;;
76339;Laerm;26644;50.248;19.032;2023-07-13T11:47:22;53.94;50.40;84.20;;
76339;Laerm;26644;50.248;19.032;2023-07-13T11:50:28;53.20;50.20;60.32;;
76339;Laerm;26644;50.248;19.032;2023-07-13T11:53:47;52.55;49.69;61.92;;
76339;Laerm;26644;50.248;19.032;2023-07-13T11:56:57;52.47;49.40;61.25;;
76339;Laerm;26644;50.248;19.032;2023-07-13T12:00:13;52.92;48.55;67.08;;
76339;Laerm;26644;50.248;19.032;2023-07-13T12:03:25;51.40;47.77;60.98;;
76339;Laerm;26644;50.248;19.032;2023-07-13T12:06:32;51.54;48.09;58.41;;
76339;Laerm;26644;50.248;19.032;2023-07-13T12:09:40;52.74;48.56;60.32;;
76339;Laerm;26644;50.248;19.032;2023-07-13T12:12:52;51.07;47.49;59.65;;
76339;Laerm;26644;50.248;19.032;2023-07-13T12:15:57;51.81;47.81;62.86;;
76339;Laerm;26644;50.248;19.032;2023-07-13T12:19:18;51.41;48.14;63.22;;
76339;Laerm;26644;50.248;19.032;2023-07-13T12:22:25;53.47;49.16;63.72;;
76339;Laerm;26644;50.248;19.032;2023-07-13T12:25:30;51.74;48.38;61.03;;
76339;Laerm;26644;50.248;19.032;2023-07-13T12:28:43;51.47;48.21;63.20;;
76339;Laerm;26644;50.248;19.032;2023-07-13T12:31:50;51.82;47.60;61.62;;
76339;Laerm;26644;50.248;19.032;2023-07-13T12:35:14;52.38;48.89;66.16;;
76339;Laerm;26644;50.248;19.032;2023-07-13T12:38:19;51.81;47.41;59.26;;
76339;Laerm;26644;50.248;19.032;2023-07-13T12:41:25;52.37;48.38;74.40;;
76339;Laerm;26644;50.248;19.032;2023-07-13T12:44:31;52.91;47.46;64.41;;
76339;Laerm;26644;50.248;19.032;2023-07-13T12:47:42;52.08;48.53;61.92;;
76339;Laerm;26644;50.248;19.032;2023-07-13T12:50:50;53.01;48.88;61.36;;
76339;Laerm;26644;50.248;19.032;2023-07-13T12:54:07;54.24;50.01;59.34;;
76339;Laerm;26644;50.248;19.032;2023-07-13T12:57:17;54.13;48.85;72.32;;
76339;Laerm;26644;50.248;19.032;2023-07-13T13:00:28;52.25;48.77;61.76;;
76339;Laerm;26644;50.248;19.032;2023-07-13T13:03:39;51.83;47.86;59.80;;
76339;Laerm;26644;50.248;19.032;2023-07-13T13:06:48;54.14;48.06;65.74;;
76339;Laerm;26644;50.248;19.032;2023-07-13T13:09:53;53.99;49.61;58.44;;
76339;Laerm;26644;50.248;19.032;2023-07-13T13:12:58;53.60;49.21;59.48;;
76339;Laerm;26644;50.248;19.032;2023-07-13T13:16:04;52.61;48.05;58.20;;
76339;Laerm;26644;50.248;19.032;2023-07-13T13:19:16;52.25;48.76;60.13;;
76339;Laerm;26644;50.248;19.032;2023-07-13T13:22:24;52.95;48.49;64.89;;
76339;Laerm;26644;50.248;19.032;2023-07-13T13:25:29;52.45;48.62;60.47;;
76339;Laerm;26644;50.248;19.032;2023-07-13T13:28:33;52.81;49.34;59.84;;
76339;Laerm;26644;50.248;19.032;2023-07-13T13:31:38;53.44;49.57;61.70;;
76339;Laerm;26644;50.248;19.032;2023-07-13T13:34:42;52.61;48.40;66.13;;
76339;Laerm;26644;50.248;19.032;2023-07-13T13:37:50;52.66;49.04;66.32;;
76339;Laerm;26644;50.248;19.032;2023-07-13T13:40:54;52.30;48.50;63.15;;
76339;Laerm;26644;50.248;19.032;2023-07-13T13:43:59;52.40;48.66;64.81;;
76339;Laerm;26644;50.248;19.032;2023-07-13T13:47:29;53.65;49.32;64.52;;
76339;Laerm;26644;50.248;19.032;2023-07-13T13:50:35;53.60;50.36;63.96;;
76339;Laerm;26644;50.248;19.032;2023-07-13T13:53:42;54.06;49.45;70.15;;
76339;Laerm;26644;50.248;19.032;2023-07-13T13:56:50;57.59;50.69;81.99;;
76339;Laerm;26644;50.248;19.032;2023-07-13T13:59:55;55.96;50.45;64.46;;
76339;Laerm;26644;50.248;19.032;2023-07-13T14:03:00;54.96;49.32;66.77;;
76339;Laerm;26644;50.248;19.032;2023-07-13T14:06:04;53.47;48.90;63.39;;
76339;Laerm;26644;50.248;19.032;2023-07-13T14:09:16;53.72;48.92;62.40;;
76339;Laerm;26644;50.248;19.032;2023-07-13T14:12:21;52.64;49.63;59.77;;
76339;Laerm;26644;50.248;19.032;2023-07-13T14:15:29;55.26;50.06;70.56;;
76339;Laerm;26644;50.248;19.032;2023-07-13T14:18:34;54.06;50.34;66.58;;
76339;Laerm;26644;50.248;19.032;2023-07-13T14:21:40;53.04;49.77;63.28;;
76339;Laerm;26644;50.248;19.032;2023-07-13T14:24:47;53.51;49.82;60.26;;
76339;Laerm;26644;50.248;19.032;2023-07-13T14:27:58;56.19;48.83;71.55;;
76339;Laerm;26644;50.248;19.032;2023-07-13T14:31:09;62.78;48.02;72.68;;
76339;Laerm;26644;50.248;19.032;2023-07-13T14:34:14;63.40;49.33;73.68;;
76339;Laerm;26644;50.248;19.032;2023-07-13T14:37:19;52.87;48.49;64.20;;
76339;Laerm;26644;50.248;19.032;2023-07-13T14:40:31;52.76;49.54;58.43;;
76339;Laerm;26644;50.248;19.032;2023-07-13T14:43:35;52.97;49.34;62.91;;
76339;Laerm;26644;50.248;19.032;2023-07-13T14:46:43;52.06;48.78;58.96;;
76339;Laerm;26644;50.248;19.032;2023-07-13T14:49:48;55.41;49.13;66.41;;
76339;Laerm;26644;50.248;19.032;2023-07-13T14:52:53;57.24;49.72;65.17;;
76339;Laerm;26644;50.248;19.032;2023-07-13T14:56:00;54.95;49.53;64.37;;
76339;Laerm;26644;50.248;19.032;2023-07-13T14:59:05;51.30;46.95;69.09;;
76339;Laerm;26644;50.248;19.032;2023-07-13T15:02:18;51.38;48.40;61.02;;
76339;Laerm;26644;50.248;19.032;2023-07-13T15:05:29;51.71;48.14;58.74;;
76339;Laerm;26644;50.248;19.032;2023-07-13T15:08:34;52.38;49.69;60.57;;
76339;Laerm;26644;50.248;19.032;2023-07-13T15:11:42;52.68;49.58;58.43;;
76339;Laerm;26644;50.248;19.032;2023-07-13T15:14:46;53.09;49.15;78.98;;
76339;Laerm;26644;50.248;19.032;2023-07-13T15:17:51;52.83;48.78;68.58;;
76339;Laerm;26644;50.248;19.032;2023-07-13T15:20:56;54.45;49.20;66.77;;
76339;Laerm;26644;50.248;19.032;2023-07-13T15:24:05;54.09;47.78;65.84;;
76339;Laerm;26644;50.248;19.032;2023-07-13T15:27:14;53.47;48.02;63.51;;
76339;Laerm;26644;50.248;19.032;2023-07-13T15:30:19;53.94;47.94;65.25;;
76339;Laerm;26644;50.248;19.032;2023-07-13T15:33:27;55.22;47.41;64.05;;
76339;Laerm;26644;50.248;19.032;2023-07-13T15:36:32;56.68;46.43;65.98;;
76339;Laerm;26644;50.248;19.032;2023-07-13T15:39:36;56.48;49.50;64.46;;
76339;Laerm;26644;50.248;19.032;2023-07-13T15:42:45;57.27;48.92;69.23;;
76339;Laerm;26644;50.248;19.032;2023-07-13T15:45:49;53.90;48.37;64.17;;
76339;Laerm;26644;50.248;19.032;2023-07-13T15:48:57;54.99;47.67;64.96;;
76339;Laerm;26644;50.248;19.032;2023-07-13T15:52:02;51.95;46.98;65.02;;
76339;Laerm;26644;50.248;19.032;2023-07-13T15:55:11;52.66;48.02;67.84;;
76339;Laerm;26644;50.248;19.032;2023-07-13T15:58:19;51.95;47.43;65.14;;
76339;Laerm;26644;50.248;19.032;2023-07-13T16:01:24;52.33;47.53;65.17;;
76339;Laerm;26644;50.248;19.032;2023-07-13T16:04:29;51.40;47.07;65.62;;
76339;Laerm;26644;50.248;19.032;2023-07-13T16:07:34;57.48;47.83;71.76;;
76339;Laerm;26644;50.248;19.032;2023-07-13T16:10:38;52.21;48.01;60.03;;
76339;Laerm;26644;50.248;19.032;2023-07-13T16:13:49;51.19;47.08;61.09;;
76339;Laerm;26644;50.248;19.032;2023-07-13T16:16:56;51.93;48.04;66.04;;
76339;Laerm;26644;50.248;19.032;2023-07-13T16:20:00;54.43;47.19;69.19;;
76339;Laerm;26644;50.248;19.032;2023-07-13T16:23:08;52.38;47.53;76.25;;
76339;Laerm;26644;50.248;19.032;2023-07-13T16:26:28;51.47;46.78;71.87;;
76339;Laerm;26644;50.248;19.032;2023-07-13T16:29:42;51.57;46.79;68.68;;
76339;Laerm;26644;50.248;19.032;2023-07-13T16:32:48;50.70;47.09;58.57;;
76339;Laerm;26644;50.248;19.032;2023-07-13T16:35:54;53.16;47.23;71.51;;
76339;Laerm;26644;50.248;19.032;2023-07-13T16:39:01;52.20;46.60;67.04;;
76339;Laerm;26644;50.248;19.032;2023-07-13T16:42:09;51.93;47.10;68.08;;
76339;Laerm;26644;50.248;19.032;2023-07-13T16:45:17;52.77;47.78;73.00;;
76339;Laerm;26644;50.248;19.032;2023-07-13T16:48:27;50.15;46.41;61.01;;
76339;Laerm;26644;50.248;19.032;2023-07-13T16:51:32;49.47;46.10;60.36;;
76339;Laerm;26644;50.248;19.032;2023-07-13T16:54:38;49.42;45.97;59.83;;
76339;Laerm;26644;50.248;19.032;2023-07-13T16:57:46;50.41;46.96;56.49;;
76339;Laerm;26644;50.248;19.032;2023-07-13T17:00:53;49.56;45.92;54.53;;
76339;Laerm;26644;50.248;19.032;2023-07-13T17:03:58;50.67;46.83;58.30;;
76339;Laerm;26644;50.248;19.032;2023-07-13T17:07:09;50.83;47.33;63.85;;
76339;Laerm;26644;50.248;19.032;2023-07-13T17:10:22;51.37;47.74;66.04;;
76339;Laerm;26644;50.248;19.032;2023-07-13T17:13:28;51.27;45.57;67.53;;
76339;Laerm;26644;50.248;19.032;2023-07-13T17:16:36;50.31;46.00;63.72;;
76339;Laerm;26644;50.248;19.032;2023-07-13T17:19:40;50.86;47.28;63.43;;